PST,Max TemperatureF,Mean TemperatureF,Min TemperatureF,Max Dew PointF,MeanDew PointF,Min DewpointF,Max Humidity, Mean Humidity, Min Humidity, Max Sea Level PressureIn, Mean Sea Level PressureIn, Min Sea Level PressureIn, Max VisibilityMiles, Mean VisibilityMiles, Min VisibilityMiles, Max Wind SpeedMPH, Mean Wind SpeedMPH, Max Gust SpeedMPH,PrecipitationIn, CloudCover, Events, WindDirDegrees
2011-11-1,50,42,35,41,38,34,100,84,71,30.57,30.50,30.39,20,16,12,13,3,,0.00,6,,98
2011-11-2,48,42,37,43,38,36,100,85,62,30.36,29.99,29.78,20,15,10,17,8,,0.00,7,Rain,102
2011-11-3,51,44,37,43,40,37,100,87,66,29.93,29.87,29.81,20,13,12,12,6,,0.00,3,,97
2011-11-4,46,39,32,39,36,30,100,84,66,29.97,29.94,29.89,20,17,15,9,4,,0.00,3,Fog,27
2011-11-5,50,44,37,39,35,32,93,81,54,29.88,29.85,29.83,20,17,12,8,6,,0.00,5,,78
2011-11-6,44,38,32,37,34,30,100,87,71,30.18,30.02,29.88,20,18,12,7,3,,0.00,4,,124
2011-11-7,42,40,39,41,39,36,100,92,87,30.21,30.19,30.17,15,12,8,13,9,17,0.00,8,Rain,83
2011-11-8,48,44,41,45,43,41,100,93,87,30.28,30.24,30.21,15,15,10,10,6,,0.00,8,Rain,78
2011-11-9,53,48,44,48,46,41,94,87,81,30.25,30.20,30.13,15,15,15,12,9,,0.00,8,Rain,97
2011-11-10,57,49,41,48,44,39,94,80,58,30.14,30.06,29.91,20,16,15,13,8,,0.00,5,Rain,102
2011-11-11,50,42,35,48,40,32,100,86,61,29.89,29.59,29.38,20,12,6,41,13,62,0.00,7,Rain,83
2011-11-12,42,38,33,41,37,32,100,94,81,29.82,29.71,29.54,20,11,3,20,8,30,0.00,7,Rain,92
2011-11-13,48,44,41,43,40,39,93,87,76,29.81,29.75,29.64,20,17,15,23,14,30,0.00,5,,261
2011-11-14,46,44,39,43,34,28,93,70,53,30.10,29.93,29.78,20,16,15,32,20,45,0.00,4,Rain,286
2011-11-15,44,38,32,36,33,30,93,80,61,30.32,30.26,30.12,20,20,20,13,7,,0.00,2,,5
2011-11-16,46,39,32,46,36,30,100,89,70,30.30,29.88,29.45,20,10,2,24,13,33,0.00,8,Rain,103
2011-11-17,46,40,33,39,33,28,100,78,53,29.79,29.68,29.54,20,14,10,23,14,33,0.00,6,Rain,147
2011-11-18,37,34,32,36,34,32,100,94,87,29.77,29.67,29.58,15,9,2,13,6,,0.00,7,Rain-Snow,48
2011-11-19,37,32,26,32,28,25,100,83,65,29.98,29.89,29.78,20,15,0,9,5,,0.00,2,Fog-Snow,127
2011-11-20,35,30,24,28,26,23,100,85,70,29.99,29.93,29.81,20,20,20,9,6,,0.00,6,,102
2011-11-21,48,40,33,45,37,28,100,87,75,29.78,29.61,29.40,20,13,6,26,15,34,0.00,8,Rain,115
2011-11-22,50,46,41,46,43,39,100,90,71,29.62,29.46,29.23,20,12,6,33,19,46,0.00,8,Rain,145
2011-11-23,44,42,37,41,40,36,100,93,81,29.80,29.58,29.36,20,10,4,18,6,,0.00,6,Rain,267
2011-11-24,44,38,32,41,37,32,100,87,76,29.81,29.64,29.45,20,15,6,36,15,46,0.00,7,Rain,118
2011-11-25,46,42,39,37,34,28,81,71,50,30.41,30.23,29.75,20,16,12,25,14,33,0.00,4,Rain,221
2011-11-26,50,44,39,46,42,34,100,91,66,30.38,30.22,29.99,15,7,2,22,16,30,0.00,8,Rain,84
2011-11-27,53,48,42,50,43,36,100,83,67,30.34,30.00,29.81,20,15,4,24,16,32,0.00,6,Rain,181
2011-11-28,46,40,35,37,36,30,93,84,66,30.51,30.47,30.36,20,20,20,16,7,17,0.00,4,,63
2011-11-29,42,40,39,39,38,37,100,89,81,30.46,30.29,30.15,20,14,8,17,8,,0.00,8,Rain,86
2011-11-30,44,38,32,39,36,30,100,91,76,30.82,30.62,30.29,20,18,12,12,6,,0.00,2,Fog,344